Terminal Aerodrome Forecast
Issued by NWS

Home | Current Version | Previous Version | Text Only | Print | Product List | Glossary On
Versions: 1 2 3 4 5 6 7 8 9 10 11 12 13 14 15 16 17 18 19 20 21 22
000
FTUS43 KGRR 031700
TAFAZO
TAF
KAZO 031740Z 0318/0418 16014KT 2SM -FZRAPL BR OVC008
     FM032000 21015G25KT 3SM -RA BR OVC004
     FM040000 25014G24KT 6SM -FZDZ BR OVC009
     FM040400 27012KT P6SM OVC025
     FM041300 29012KT P6SM OVC035=

USA.gov is the U.S. government's official web portal to all federal, state and local government web resources and services.